This is the latest recevied weather packets stored in our database for station/object EB1BWO-10. If no packets are shown the sender has not sent any weather packets the latest 10 day(s).
| Time | Temp. | Humidity | Pressure | Rain* | Wind** | Luminosity | Snow |
|---|---|---|---|---|---|---|---|
| 1777703269 | 12.22° C | 96% | 952.4 hPa | - | - | - | - |
| 1777702369 | 12.22° C | 95% | 951.3 hPa | - | - | - | - |
| 1777701469 | 12.22° C | 95% | 950.8 hPa | - | - | - | - |
| 1777700572 | 12.22° C | 92% | 950.4 hPa | - | - | - | - |
| 1777698769 | 12.22° C | 91% | 950.3 hPa | - | - | - | - |
| 1777697869 | 12.22° C | 92% | 950.5 hPa | - | - | - | - |
| 1777696969 | 12.22° C | 92% | 950.6 hPa | - | - | - | - |
| 1777696069 | 12.22° C | 94% | 950.5 hPa | - | - | - | - |
| 1777695169 | 12.22° C | 93% | 950.4 hPa | - | - | - | - |
| 1777694270 | 14.44° C | 79% | 950.4 hPa | - | - | - | - |
| 1777692469 | 15.56° C | 79% | 950.7 hPa | - | - | - | - |
| 1777691569 | 15.56° C | 78% | 950.6 hPa | - | - | - | - |
| 1777690669 | 15° C | 75% | 950.6 hPa | - | - | - | - |
| 1777689772 | 14.44° C | 81% | 950.6 hPa | - | - | - | - |
| 1777688869 | 14.44° C | 81% | 950.9 hPa | - | - | - | - |
| 1777687968 | 13.89° C | 84% | 950.9 hPa | - | - | - | - |
| 1777687068 | 14.44° C | 80% | 950.9 hPa | - | - | - | - |
| 1777685268 | 13.89° C | 83% | 951.5 hPa | - | - | - | - |
| 1777684369 | 13.33° C | 92% | 951.6 hPa | - | - | - | - |
| 1777682569 | 12.78° C | 93% | 951.6 hPa | - | - | - | - |
| 1777678069 | 12.78° C | 96% | 952.2 hPa | - | - | - | - |
| 1777677169 | 12.78° C | 91% | 952.2 hPa | - | - | - | - |
| 1777676269 | 13.89° C | 91% | 952.1 hPa | - | - | - | - |
| 1777675368 | 13.89° C | 93% | 952.1 hPa | - | - | - | - |
| 1777674469 | 13.33° C | 94% | 952.3 hPa | - | - | - | - |
* Rain since midnight (hover to see other rain measurements)
** Current wind speed in m/s (hover to see current wind gust speed)